createdAt,value
2022-10-22T00:01:02.357Z,9.38
2022-10-22T00:03:29.279Z,11.35
2022-10-22T00:05:56.117Z,9.65
2022-10-22T00:08:22.752Z,10.52
2022-10-22T00:10:49.410Z,10.77
2022-10-22T00:13:16.792Z,9.77
2022-10-22T00:15:43.539Z,10.00
2022-10-22T00:18:10.141Z,10.35
2022-10-22T00:20:36.711Z,10.88
2022-10-22T00:23:03.381Z,9.95
2022-10-22T00:25:30.913Z,10.13
2022-10-22T00:27:57.459Z,10.07
2022-10-22T00:30:23.989Z,10.20
2022-10-22T00:32:50.519Z,9.82
2022-10-22T00:35:17.245Z,9.77
2022-10-22T00:37:43.868Z,11.05
2022-10-22T00:40:11.145Z,10.60
2022-10-22T00:42:38.128Z,10.18
2022-10-22T00:45:08.373Z,10.30
2022-10-22T00:47:43.602Z,11.75
2022-10-22T00:50:38.225Z,10.68
2022-10-22T00:53:10.600Z,10.77
2022-10-22T00:55:38.991Z,10.48
2022-10-22T00:58:05.684Z,9.88
2022-10-22T01:00:32.334Z,10.35
2022-10-22T01:02:59.650Z,10.88
2022-10-22T01:05:33.017Z,9.63
2022-10-22T01:07:59.752Z,9.90
2022-10-22T01:10:58.933Z,10.07
2022-10-22T01:13:38.764Z,9.90
2022-10-22T01:16:14.933Z,10.25
2022-10-22T01:18:54.191Z,9.15
2022-10-22T01:21:46.003Z,10.18
2022-10-22T01:24:31.707Z,12.65
2022-10-22T01:27:35.110Z,14.40
2022-10-22T01:30:07.755Z,11.60
2022-10-22T01:32:51.823Z,10.82
2022-10-22T01:35:23.616Z,11.10
2022-10-22T01:37:55.601Z,11.38
2022-10-22T01:40:23.338Z,10.70
2022-10-22T01:43:10.967Z,10.25
2022-10-22T01:45:42.490Z,9.95
2022-10-22T01:48:17.725Z,9.88
2022-10-22T01:50:59.675Z,10.88
2022-10-22T01:53:37.527Z,9.65
2022-10-22T01:56:29.264Z,9.60
2022-10-22T01:59:22.886Z,9.40
2022-10-22T02:02:24.901Z,9.55
2022-10-22T02:05:03.165Z,10.40
2022-10-22T02:07:35.666Z,9.45
2022-10-22T02:10:03.869Z,9.35
2022-10-22T02:12:32.344Z,9.65
2022-10-22T02:15:01.452Z,9.57
2022-10-22T02:17:32.715Z,9.70
2022-10-22T02:20:23.079Z,9.15
2022-10-22T02:22:50.046Z,10.10
2022-10-22T02:25:17.204Z,10.18
2022-10-22T02:27:49.264Z,9.93
2022-10-22T02:30:21.348Z,9.20
2022-10-22T02:33:06.159Z,10.70
2022-10-22T02:35:34.122Z,11.15
2022-10-22T02:38:01.437Z,11.63
2022-10-22T02:40:30.606Z,11.93
2022-10-22T02:42:57.188Z,10.82
2022-10-22T02:45:24.138Z,10.57
2022-10-22T02:47:50.728Z,10.15
2022-10-22T02:50:17.304Z,9.73
2022-10-22T02:52:44.215Z,9.27
2022-10-22T02:55:10.911Z,9.20
2022-10-22T02:57:37.713Z,10.10
2022-10-22T03:00:06.506Z,9.07
2022-10-22T03:02:33.319Z,8.77
2022-10-22T03:05:00.068Z,9.25
2022-10-22T03:07:26.756Z,8.73
2022-10-22T03:09:53.291Z,8.80
2022-10-22T03:12:19.999Z,8.93
2022-10-22T03:14:46.890Z,8.00
2022-10-22T03:17:13.569Z,8.07
2022-10-22T03:19:40.187Z,9.55
2022-10-22T03:22:21.744Z,9.13
2022-10-22T03:24:52.522Z,9.13
2022-10-22T03:27:21.516Z,8.68
2022-10-22T03:29:51.016Z,10.07
2022-10-22T03:32:17.662Z,10.00
2022-10-22T03:34:44.336Z,9.52
2022-10-22T03:37:11.355Z,9.68
2022-10-22T03:39:38.651Z,10.60
2022-10-22T03:42:06.631Z,10.05
2022-10-22T03:44:35.195Z,10.40
2022-10-22T03:47:02.851Z,11.13
2022-10-22T03:49:29.742Z,12.60
2022-10-22T03:51:56.529Z,11.82
2022-10-22T03:54:23.203Z,12.05
2022-10-22T03:56:49.843Z,11.32
2022-10-22T03:59:17.046Z,11.45
2022-10-22T04:01:43.723Z,11.77
2022-10-22T04:04:10.286Z,11.63
2022-10-22T04:06:37.102Z,11.25
2022-10-22T04:09:03.951Z,10.95
2022-10-22T04:11:30.582Z,11.55
2022-10-22T04:13:57.149Z,10.55
2022-10-22T04:16:26.195Z,10.80
2022-10-22T04:18:55.262Z,10.73
2022-10-22T04:21:22.071Z,11.30
2022-10-22T04:23:51.609Z,11.48
2022-10-22T04:26:20.022Z,10.05
2022-10-22T04:28:48.267Z,11.32
2022-10-22T04:31:20.031Z,11.38
2022-10-22T04:33:47.057Z,10.80
2022-10-22T04:36:17.515Z,11.02
2022-10-22T04:38:46.313Z,11.32
2022-10-22T04:41:20.974Z,9.57
2022-10-22T04:43:48.414Z,10.48
2022-10-22T04:46:16.943Z,10.07
2022-10-22T04:48:45.091Z,11.77
2022-10-22T04:51:14.489Z,11.40
2022-10-22T04:53:41.592Z,9.55
2022-10-22T04:56:22.975Z,10.48
2022-10-22T04:58:52.558Z,10.13
2022-10-22T05:03:49.144Z,9.48
2022-10-22T05:06:16.632Z,9.13
2022-10-22T05:08:43.599Z,9.63
2022-10-22T05:11:21.791Z,9.40
2022-10-22T05:13:49.156Z,9.13
2022-10-22T05:16:16.120Z,9.18
2022-10-22T05:18:44.664Z,9.55
2022-10-22T05:21:14.192Z,9.20
2022-10-22T05:23:41.431Z,9.70
2022-10-22T05:26:09.787Z,9.25
2022-10-22T05:28:36.729Z,10.50
2022-10-22T05:31:04.198Z,9.18
2022-10-22T05:33:32.440Z,9.73
2022-10-22T05:36:00.044Z,9.70
2022-10-22T05:38:27.247Z,9.95
2022-10-22T05:41:15.439Z,9.73
2022-10-22T05:43:42.363Z,10.18
2022-10-22T05:46:11.633Z,11.25
2022-10-22T05:48:38.733Z,10.13
2022-10-22T05:51:08.231Z,10.98
2022-10-22T05:53:36.092Z,11.88
2022-10-22T05:56:04.715Z,11.13
2022-10-22T05:58:31.359Z,10.57
2022-10-22T06:01:03.316Z,10.23
2022-10-22T06:03:31.757Z,10.18
2022-10-22T06:06:20.564Z,10.98
2022-10-22T06:08:49.549Z,10.32
2022-10-22T06:11:17.858Z,10.65
2022-10-22T06:13:45.904Z,10.55
2022-10-22T06:16:13.152Z,10.80
2022-10-22T06:18:40.119Z,9.73
2022-10-22T06:21:12.919Z,9.05
2022-10-22T06:23:40.304Z,10.10
2022-10-22T06:26:07.728Z,10.35
2022-10-22T06:28:34.978Z,11.23
2022-10-22T06:31:03.124Z,10.57
2022-10-22T06:33:32.280Z,12.38
2022-10-22T06:36:13.154Z,10.60
2022-10-22T06:38:40.658Z,10.88
2022-10-22T06:41:09.675Z,11.48
2022-10-22T06:43:36.867Z,11.80
2022-10-22T06:46:06.210Z,11.57
2022-10-22T06:48:33.739Z,10.27
2022-10-22T06:51:09.809Z,10.93
2022-10-22T06:53:37.065Z,10.07
2022-10-22T06:56:09.043Z,10.82
2022-10-22T06:58:36.001Z,10.60
2022-10-22T07:01:14.162Z,10.85
2022-10-22T07:03:41.784Z,10.88
2022-10-22T07:06:11.135Z,11.20
2022-10-22T07:08:38.345Z,10.10
2022-10-22T07:11:10.973Z,10.93
2022-10-22T07:13:37.609Z,11.00
2022-10-22T07:16:05.768Z,11.85
2022-10-22T07:18:33.263Z,10.68
2022-10-22T07:21:00.391Z,12.07
2022-10-22T07:23:27.660Z,11.85
2022-10-22T07:25:57.753Z,12.40
2022-10-22T07:28:24.874Z,11.35
2022-10-22T07:30:51.514Z,11.38
2022-10-22T07:33:18.085Z,12.63
2022-10-22T07:35:44.916Z,10.88
2022-10-22T07:38:12.065Z,11.75
2022-10-22T07:40:38.775Z,11.98
2022-10-22T07:43:06.833Z,12.60
2022-10-22T07:45:33.857Z,12.15
2022-10-22T07:48:00.672Z,12.85
2022-10-22T07:50:27.385Z,13.00
2022-10-22T07:52:56.069Z,12.90
2022-10-22T07:55:25.267Z,12.80
2022-10-22T07:57:51.830Z,13.05
2022-10-22T08:00:20.584Z,13.32
2022-10-22T08:02:49.829Z,12.55
2022-10-22T08:05:16.616Z,12.45
2022-10-22T08:07:43.808Z,11.27
2022-10-22T08:10:12.250Z,11.70
2022-10-22T08:12:39.154Z,11.90
2022-10-22T08:15:07.001Z,12.60
2022-10-22T08:17:33.669Z,11.00
2022-10-22T08:20:00.260Z,11.50
2022-10-22T08:22:26.993Z,11.57
2022-10-22T08:24:53.694Z,11.38
2022-10-22T08:27:20.338Z,11.90
2022-10-22T08:29:47.135Z,11.65
2022-10-22T08:32:13.803Z,11.90
2022-10-22T08:34:40.533Z,11.88
2022-10-22T08:37:08.511Z,11.68
2022-10-22T08:39:35.691Z,11.45
2022-10-22T08:42:27.354Z,12.70
2022-10-22T08:45:00.020Z,12.55
2022-10-22T08:47:38.985Z,13.25
2022-10-22T08:50:09.379Z,13.45
2022-10-22T08:52:40.063Z,14.18
2022-10-22T08:55:14.308Z,13.48
2022-10-22T08:57:49.927Z,12.30
2022-10-22T09:00:25.197Z,12.15
2022-10-22T09:03:10.415Z,11.77
2022-10-22T09:05:40.069Z,11.38
2022-10-22T09:08:12.563Z,9.43
2022-10-22T09:10:46.188Z,7.13
2022-10-22T09:13:18.106Z,5.78
2022-10-22T09:16:15.556Z,5.80
2022-10-22T09:18:56.799Z,5.10
2022-10-22T09:21:55.382Z,4.32
2022-10-22T09:24:48.890Z,4.57
2022-10-22T09:27:19.508Z,4.45
2022-10-22T09:29:48.238Z,4.00
2022-10-22T09:32:16.745Z,4.18
2022-10-22T09:34:48.576Z,3.50
2022-10-22T09:37:18.578Z,3.40
2022-10-22T09:39:50.890Z,3.45
2022-10-22T09:42:19.675Z,3.00
2022-10-22T09:44:54.977Z,3.13
2022-10-22T09:47:43.613Z,3.25
2022-10-22T09:50:38.867Z,3.05
2022-10-22T09:53:20.747Z,3.03
2022-10-22T09:55:59.657Z,2.78
2022-10-22T09:58:27.416Z,3.03
2022-10-22T10:00:59.368Z,2.50
2022-10-22T10:03:29.463Z,2.80
2022-10-22T10:06:02.974Z,2.60
2022-10-22T10:08:32.501Z,2.50
2022-10-22T10:11:29.381Z,2.35
2022-10-22T10:14:04.785Z,3.30
2022-10-22T10:17:09.084Z,2.47
2022-10-22T10:20:03.771Z,2.28
2022-10-22T10:22:52.961Z,2.60
2022-10-22T10:25:55.456Z,2.33
2022-10-22T10:28:25.259Z,2.60
2022-10-22T10:31:08.762Z,2.50
2022-10-22T10:33:55.024Z,2.58
2022-10-22T10:37:08.380Z,2.30
2022-10-22T10:39:52.542Z,2.40
2022-10-22T10:42:31.896Z,2.90
2022-10-22T10:45:12.914Z,2.70
2022-10-22T10:48:01.274Z,2.63
2022-10-22T10:50:40.465Z,1.95
2022-10-22T10:53:25.458Z,2.28
2022-10-22T10:56:18.572Z,2.08
2022-10-22T10:59:09.600Z,2.35
2022-10-22T11:01:48.500Z,2.65
2022-10-22T11:04:24.027Z,1.92
2022-10-22T11:07:05.883Z,2.22
2022-10-22T11:09:46.146Z,2.42
2022-10-22T11:12:19.649Z,2.78
2022-10-22T11:15:22.826Z,2.38
2022-10-22T11:17:51.421Z,3.00
2022-10-22T11:20:32.756Z,2.97
2022-10-22T11:23:19.376Z,2.38
2022-10-22T11:25:49.850Z,2.17
2022-10-22T11:28:41.445Z,2.15
2022-10-22T11:31:15.985Z,2.38
2022-10-22T11:34:04.820Z,2.35
2022-10-22T11:36:42.202Z,2.55
2022-10-22T11:39:35.715Z,2.55
2022-10-22T11:42:06.062Z,2.08
2022-10-22T11:44:46.242Z,2.60
2022-10-22T11:47:23.902Z,2.85
2022-10-22T11:50:19.248Z,2.75
2022-10-22T11:53:04.399Z,2.30
2022-10-22T11:55:49.332Z,2.15
2022-10-22T11:58:39.193Z,1.92
2022-10-22T12:01:08.731Z,2.10
2022-10-22T12:06:12.092Z,1.90
2022-10-22T12:08:49.541Z,2.50
2022-10-22T12:11:19.384Z,2.53
2022-10-22T12:13:58.593Z,2.50
2022-10-22T12:16:55.200Z,2.28
2022-10-22T12:19:23.159Z,2.55
2022-10-22T12:21:56.025Z,3.15
2022-10-22T12:24:25.807Z,1.88
2022-10-22T12:26:52.876Z,1.70
2022-10-22T12:29:23.675Z,1.70
2022-10-22T12:31:50.556Z,1.65
2022-10-22T12:34:21.669Z,2.28
2022-10-22T12:36:50.515Z,2.38
2022-10-22T12:39:21.090Z,1.60
2022-10-22T12:41:48.071Z,1.85
2022-10-22T12:44:17.798Z,1.65
2022-10-22T12:46:47.459Z,1.60
2022-10-22T12:49:19.193Z,2.33
2022-10-22T12:51:47.471Z,1.98
2022-10-22T12:54:23.422Z,2.10
2022-10-22T12:56:52.396Z,1.92
2022-10-22T12:59:37.424Z,1.23
2022-10-22T13:02:25.368Z,1.83
2022-10-22T13:05:27.298Z,1.42
2022-10-22T13:08:04.496Z,1.42
2022-10-22T13:10:34.906Z,1.70
2022-10-22T13:13:06.795Z,1.50
2022-10-22T13:15:35.226Z,1.67
2022-10-22T13:18:16.805Z,1.80
2022-10-22T13:21:42.303Z,1.92
2022-10-22T13:24:23.771Z,1.58
2022-10-22T13:26:53.415Z,1.45
2022-10-22T13:29:22.286Z,1.50
2022-10-22T13:31:54.144Z,2.38
2022-10-22T13:34:23.663Z,2.00
2022-10-22T13:39:22.924Z,2.35
2022-10-22T13:41:50.705Z,2.17
2022-10-22T13:44:18.655Z,2.20
2022-10-22T13:46:46.442Z,1.83
2022-10-22T13:49:17.819Z,2.38
2022-10-22T13:51:45.122Z,1.77
2022-10-22T13:54:19.871Z,2.25
2022-10-22T13:56:48.431Z,1.80
2022-10-22T13:59:17.247Z,2.53
2022-10-22T14:01:46.604Z,2.33
2022-10-22T14:04:14.974Z,3.13
2022-10-22T14:06:41.649Z,2.60
2022-10-22T14:09:13.884Z,2.47
2022-10-22T14:11:40.799Z,2.58
2022-10-22T14:14:09.134Z,3.20
2022-10-22T14:16:37.730Z,2.28
2022-10-22T14:19:07.909Z,2.58
2022-10-22T14:21:37.750Z,2.58
2022-10-22T14:24:07.241Z,2.47
2022-10-22T14:26:36.637Z,2.83
2022-10-22T14:29:11.714Z,2.17
2022-10-22T14:34:14.387Z,2.90
2022-10-22T14:36:43.682Z,2.95
2022-10-22T14:41:37.451Z,3.03
2022-10-22T14:44:04.256Z,2.50
2022-10-22T14:46:30.950Z,2.35
2022-10-22T14:48:57.627Z,2.03
2022-10-22T14:51:24.373Z,2.03
2022-10-22T14:53:50.931Z,2.70
2022-10-22T14:56:22.595Z,2.17
2022-10-22T14:58:49.633Z,1.80
2022-10-22T15:01:16.629Z,2.50
2022-10-22T15:03:43.522Z,2.13
2022-10-22T15:06:10.316Z,1.50
2022-10-22T15:08:37.242Z,1.23
2022-10-22T15:11:06.929Z,1.70
2022-10-22T15:13:34.208Z,2.08
2022-10-22T15:16:01.393Z,2.10
2022-10-22T15:18:28.724Z,1.80
2022-10-22T15:21:00.875Z,1.55
2022-10-22T15:23:27.953Z,1.50
2022-10-22T15:25:55.468Z,1.30
2022-10-22T15:28:22.450Z,1.60
2022-10-22T15:30:54.323Z,1.75
2022-10-22T15:33:21.139Z,1.23
2022-10-22T15:35:47.858Z,1.30
2022-10-22T15:38:17.357Z,1.25
2022-10-22T15:40:44.414Z,1.55
2022-10-22T15:43:11.581Z,1.30
2022-10-22T15:45:38.927Z,1.77
2022-10-22T15:48:06.013Z,1.55
2022-10-22T15:50:37.077Z,1.60
2022-10-22T15:53:03.716Z,1.42
2022-10-22T15:55:30.237Z,1.38
2022-10-22T15:57:59.233Z,2.65
2022-10-22T16:00:29.141Z,4.97
2022-10-22T16:02:55.737Z,6.85
2022-10-22T16:05:22.701Z,9.52
2022-10-22T16:07:51.458Z,8.68
2022-10-22T16:10:19.151Z,9.60
2022-10-22T16:12:45.926Z,11.13
2022-10-22T16:15:12.509Z,10.70
2022-10-22T16:17:39.343Z,9.65
2022-10-22T16:20:06.538Z,9.70
2022-10-22T16:22:34.010Z,7.03
2022-10-22T16:25:00.829Z,5.28
2022-10-22T16:27:27.583Z,4.30
2022-10-22T16:29:55.637Z,3.40
2022-10-22T16:32:23.337Z,4.13
2022-10-22T16:34:50.084Z,3.80
2022-10-22T16:37:16.706Z,3.85
2022-10-22T16:39:43.462Z,3.35
2022-10-22T16:42:10.009Z,3.42
2022-10-22T16:44:36.621Z,3.20
2022-10-22T16:47:03.190Z,3.10
2022-10-22T16:49:29.961Z,4.22
2022-10-22T16:51:56.632Z,4.20
2022-10-22T16:54:23.260Z,4.15
2022-10-22T16:56:49.820Z,4.32
2022-10-22T16:59:16.562Z,5.25
2022-10-22T17:01:43.192Z,4.80
2022-10-22T17:04:10.240Z,4.20
2022-10-22T17:06:36.858Z,4.35
2022-10-22T17:09:04.340Z,5.07
2022-10-22T17:11:36.246Z,4.38
2022-10-22T17:14:04.888Z,3.90
2022-10-22T17:16:31.530Z,4.30
2022-10-22T17:18:58.311Z,4.47
2022-10-22T17:21:25.107Z,4.95
2022-10-22T17:23:56.528Z,4.22
2022-10-22T17:26:26.415Z,5.25
2022-10-22T17:28:53.321Z,4.90
2022-10-22T17:31:35.384Z,3.80
2022-10-22T17:34:01.982Z,3.90
2022-10-22T17:36:33.229Z,3.90
2022-10-22T17:39:05.137Z,3.50
2022-10-22T17:41:34.687Z,3.90
2022-10-22T17:46:32.823Z,3.90
2022-10-22T17:49:05.414Z,4.10
2022-10-22T17:51:32.743Z,4.70
2022-10-22T17:53:59.827Z,5.57
2022-10-22T17:56:29.833Z,6.90
2022-10-22T17:58:56.728Z,7.78
2022-10-22T18:01:31.997Z,8.27
2022-10-22T18:04:01.347Z,8.10
2022-10-22T18:06:28.684Z,8.40
2022-10-22T18:08:55.392Z,8.52
2022-10-22T18:11:24.333Z,8.02
2022-10-22T18:13:52.350Z,6.38
2022-10-22T18:16:19.741Z,7.50
2022-10-22T18:18:51.791Z,8.07
2022-10-22T18:21:18.722Z,7.28
2022-10-22T18:23:46.253Z,7.55
2022-10-22T18:26:13.493Z,8.63
2022-10-22T18:28:40.071Z,7.68
2022-10-22T18:31:08.449Z,8.60
2022-10-22T18:33:36.914Z,8.60
2022-10-22T18:36:05.478Z,8.30
2022-10-22T18:38:32.200Z,9.05
2022-10-22T18:40:58.988Z,7.93
2022-10-22T18:43:25.696Z,7.90
2022-10-22T18:45:52.386Z,9.45
2022-10-22T18:48:20.450Z,9.90
2022-10-22T18:50:47.231Z,9.55
2022-10-22T18:53:16.081Z,9.90
2022-10-22T18:55:42.702Z,10.50
2022-10-22T18:58:09.302Z,9.80
2022-10-22T19:00:36.766Z,10.38
2022-10-22T19:03:03.414Z,10.38
2022-10-22T19:05:30.600Z,11.68
2022-10-22T19:07:57.277Z,13.35
2022-10-22T19:10:23.841Z,14.45
2022-10-22T19:12:50.507Z,16.20
2022-10-22T19:15:17.179Z,16.20
2022-10-22T19:17:43.950Z,16.38
2022-10-22T19:20:10.950Z,17.52
2022-10-22T19:22:37.558Z,16.45
2022-10-22T19:25:06.038Z,16.92
2022-10-22T19:27:36.446Z,17.50
2022-10-22T19:30:04.617Z,14.85
2022-10-22T19:32:31.275Z,15.77
2022-10-22T19:34:58.044Z,15.38
2022-10-22T19:37:24.756Z,16.50
2022-10-22T19:39:51.524Z,15.55
2022-10-22T19:42:18.297Z,14.23
2022-10-22T19:44:45.113Z,12.40
2022-10-22T19:47:12.216Z,13.50
2022-10-22T19:49:38.937Z,12.60
2022-10-22T19:52:05.767Z,12.55
2022-10-22T19:54:32.300Z,13.27
2022-10-22T19:56:59.063Z,11.38
2022-10-22T19:59:29.813Z,11.45
2022-10-22T20:01:58.177Z,11.07
2022-10-22T20:04:25.026Z,11.10
2022-10-22T20:06:51.940Z,10.23
2022-10-22T20:09:18.635Z,11.48
2022-10-22T20:11:45.513Z,10.32
2022-10-22T20:14:13.215Z,9.27
2022-10-22T20:16:40.104Z,8.73
2022-10-22T20:19:07.756Z,8.20
2022-10-22T20:21:35.275Z,8.25
2022-10-22T20:24:02.124Z,8.75
2022-10-22T20:26:29.523Z,9.35
2022-10-22T20:28:58.305Z,9.70
2022-10-22T20:31:27.847Z,10.13
2022-10-22T20:34:01.073Z,9.27
2022-10-22T20:36:29.448Z,10.23
2022-10-22T20:39:06.226Z,9.98
2022-10-22T20:41:34.794Z,10.90
2022-10-22T20:44:01.842Z,10.75
2022-10-22T20:46:31.115Z,10.85
2022-10-22T20:49:04.630Z,11.15
2022-10-22T20:51:31.402Z,11.68
2022-10-22T20:53:58.018Z,10.80
2022-10-22T20:56:24.840Z,12.07
2022-10-22T20:58:56.642Z,11.98
2022-10-22T21:01:24.187Z,11.98
2022-10-22T21:03:52.616Z,12.52
2022-10-22T21:06:23.095Z,12.15
2022-10-22T21:08:50.769Z,12.68
2022-10-22T21:11:18.139Z,12.23
2022-10-22T21:13:44.753Z,10.93
2022-10-22T21:16:13.532Z,11.25
2022-10-22T21:18:40.228Z,11.00
2022-10-22T21:21:08.099Z,11.68
2022-10-22T21:23:36.058Z,10.60
2022-10-22T21:26:02.693Z,10.82
2022-10-22T21:30:56.923Z,10.90
2022-10-22T21:33:23.568Z,10.88
2022-10-22T21:35:54.961Z,10.93
2022-10-22T21:38:23.246Z,11.18
2022-10-22T21:40:50.622Z,10.35
2022-10-22T21:43:17.861Z,10.35
2022-10-22T21:45:44.650Z,9.63
2022-10-22T21:48:15.016Z,9.93
2022-10-22T21:50:42.999Z,9.82
2022-10-22T21:53:11.934Z,9.07
2022-10-22T21:55:40.211Z,10.25
2022-10-22T21:58:07.713Z,9.85
2022-10-22T22:00:35.400Z,9.52
2022-10-22T22:03:02.422Z,10.27
2022-10-22T22:05:29.627Z,10.75
2022-10-22T22:07:56.343Z,10.02
2022-10-22T22:10:25.110Z,10.57
2022-10-22T22:12:52.349Z,11.00
2022-10-22T22:15:20.452Z,11.63
2022-10-22T22:17:47.231Z,11.68
2022-10-22T22:20:13.816Z,12.50
2022-10-22T22:22:40.675Z,12.77
2022-10-22T22:25:07.668Z,12.05
2022-10-22T22:27:34.467Z,11.88
2022-10-22T22:30:01.012Z,12.63
2022-10-22T22:32:27.632Z,11.45
2022-10-22T22:34:54.477Z,13.18
2022-10-22T22:37:21.218Z,14.98
2022-10-22T22:39:47.820Z,13.82
2022-10-22T22:42:14.465Z,12.93
2022-10-22T22:44:41.069Z,13.10
2022-10-22T22:47:07.674Z,12.27
2022-10-22T22:49:35.829Z,12.27
2022-10-22T22:52:04.176Z,13.65
2022-10-22T22:54:30.820Z,12.65
2022-10-22T22:56:59.490Z,11.95
2022-10-22T22:59:27.344Z,12.30
2022-10-22T23:01:53.896Z,11.95
2022-10-22T23:04:25.050Z,13.30
2022-10-22T23:06:52.198Z,12.15
2022-10-22T23:11:47.212Z,11.20
2022-10-22T23:14:16.734Z,11.10
2022-10-22T23:16:49.239Z,11.80
2022-10-22T23:19:19.221Z,10.45
2022-10-22T23:21:51.369Z,11.35
2022-10-22T23:24:21.051Z,10.40
2022-10-22T23:26:49.930Z,11.27
2022-10-22T23:29:22.508Z,11.43
2022-10-22T23:31:50.691Z,10.20
2022-10-22T23:34:20.452Z,10.07
2022-10-22T23:36:47.388Z,9.73
2022-10-22T23:39:17.141Z,10.10
2022-10-22T23:41:44.070Z,9.85
2022-10-22T23:44:11.154Z,9.73
2022-10-22T23:46:38.642Z,9.73
2022-10-22T23:49:06.887Z,9.82
2022-10-22T23:51:33.516Z,11.02
2022-10-22T23:54:02.532Z,9.80
2022-10-22T23:56:29.681Z,9.25
2022-10-22T23:58:57.583Z,9.30
